Falls Of Rough, KY (40119)

8:47 PM CDT on October 20, 2014 (GMT -0500)
Eveleigh Road | Change Station
CLOSE
Current Station
Personal Weather Station
Location: Leitchfield, KY
Elevation: 204 m
Nearby Weather Stations

Elev 204 m 37.58 °N, 86.34 °W | Updated 2 seconds ago

Partly Cloudy
Partly Cloudy
16.4 °C
Feels Like 16.4 °C
N
6.1
Wind Variable Wind from SW
Gusts 8.7 km/h

Today
High -- | Low -- °C
--% Chance of Precip.
Yesterday
High -- | Low -- °C
Precip. -- mm
6:58 AM 6:01 PM
Waning Crescent, 8% visible
Pressure 1013 hPa
Visibility 16.1 kilometers
Clouds Scattered Clouds 1371 m
Scattered Clouds 1676 m
Mostly Cloudy 2286 m
Dew Point 12 °C
Humidity 76%
Rainfall 0 mm
Snow Depth Not available.
UV 0 out of 12
Pollen 1.80 out of 12
Air Quality Not available.
Flu Activity Sporadic
METAR KFTK 210058Z 20005KT 10SM SCT045 SCT055 BKN075 15/11 A2992 RMK AO2A SLP134 T01520108

More Conditions Fewer Conditions

Pressure 1013 hPa
Visibility 16.1 kilometers
Clouds Scattered Clouds 1371 m
Scattered Clouds 1676 m
Mostly Cloudy 2286 m
Dew Point 12 °C
Humidity 76%
Rainfall 0 mm
Snow Depth Not available.
UV 0 out of 12
Pollen 1.80 out of 12
Air Quality Not available.
Flu Activity Sporadic
METAR KFTK 210058Z 20005KT 10SM SCT045 SCT055 BKN075 15/11 A2992 RMK AO2A SLP134 T01520108

More Conditions Fewer Conditions

10-Day Weather Forecast

Almanac

Astronomy

Oct. 20, 2014 Rise Set
Actual Time 6:58 AM CDT 6:01 PM CDT
Civil Twilight 6:32 AM CDT 6:28 PM CDT
Nautical Twilight 6:01 AM CDT 6:58 PM CDT
Astronomical Twilight 5:31 AM CDT 7:29 PM CDT
Moon 3:50 AM CDT (10/20) 4:21 PM CDT (10/20)
Length of Visible Light 11h 56m
Length of Day
11h 02m
Tomorrow will be 2m 16s shorter.
Waning Crescent, 8% of the Moon is Illuminated
Today
Waning Crescent
Oct 23
New
Oct 30
First Quarter
Nov 6
Full
Nov 14
Last Quarter

Today's Extremes

State Highs State Lows

Community

WunderPhotos

Upload Photos

1,763,563 photos uploaded!

Nearby

Snow Depth

Station Depth Elevation
No new snow has been reported.

Earthquake Activity

City Distance Mag. Time & Date
No recent earthquake activity has been reported nearby.
Minimum magnitude displayed is 2.5.

Coastal Water Temperatures

Place Temperature
No Stations Reporting

Nearby Weather Stations